sensor_id;sensor_type;location;lat;lon;timestamp;pressure;altitude;pressure_sealevel;temperature;humidity
41140;BME280;26881;48.784;9.192;2023-06-26T00:02:18;98517.84;;;21.39;47.47
41140;BME280;26881;48.784;9.192;2023-06-26T00:07:40;98515.31;;;21.29;47.68
41140;BME280;26881;48.784;9.192;2023-06-26T00:13:02;98515.03;;;21.06;48.63
41140;BME280;26881;48.784;9.192;2023-06-26T00:18:25;98515.38;;;21.03;48.78
41140;BME280;26881;48.784;9.192;2023-06-26T00:23:46;98519.34;;;21.07;48.73
41140;BME280;26881;48.784;9.192;2023-06-26T00:29:08;98518.28;;;20.92;49.67
41140;BME280;26881;48.784;9.192;2023-06-26T00:34:30;98517.16;;;20.68;50.04
41140;BME280;26881;48.784;9.192;2023-06-26T00:39:52;98513.38;;;20.53;50.69
41140;BME280;26881;48.784;9.192;2023-06-26T00:45:14;98513.38;;;20.53;50.88
41140;BME280;26881;48.784;9.192;2023-06-26T00:50:37;98512.47;;;20.62;51.04
41140;BME280;26881;48.784;9.192;2023-06-26T00:56:01;98509.13;;;20.60;50.97
41140;BME280;26881;48.784;9.192;2023-06-26T01:01:23;98502.06;;;20.51;51.44
41140;BME280;26881;48.784;9.192;2023-06-26T01:06:48;98503.06;;;20.50;51.16
41140;BME280;26881;48.784;9.192;2023-06-26T01:12:11;98497.09;;;20.30;51.54
41140;BME280;26881;48.784;9.192;2023-06-26T01:17:33;98499.28;;;20.34;51.58
41140;BME280;26881;48.784;9.192;2023-06-26T01:23:21;98498.25;;;20.09;52.41
41140;BME280;26881;48.784;9.192;2023-06-26T01:28:44;98493.88;;;20.00;52.80
41140;BME280;26881;48.784;9.192;2023-06-26T01:34:07;98490.00;;;19.94;53.06
41140;BME280;26881;48.784;9.192;2023-06-26T01:39:29;98489.78;;;19.70;53.99
41140;BME280;26881;48.784;9.192;2023-06-26T01:44:51;98483.41;;;19.81;53.59
41140;BME280;26881;48.784;9.192;2023-06-26T01:50:18;98490.22;;;19.83;54.04
41140;BME280;26881;48.784;9.192;2023-06-26T01:55:47;98481.88;;;19.78;53.95
41140;BME280;26881;48.784;9.192;2023-06-26T02:01:11;98477.56;;;19.77;54.27
41140;BME280;26881;48.784;9.192;2023-06-26T02:06:34;98478.72;;;19.65;54.31
41140;BME280;26881;48.784;9.192;2023-06-26T02:11:56;98480.13;;;19.41;55.30
41140;BME280;26881;48.784;9.192;2023-06-26T02:17:18;98482.03;;;19.31;55.36
41140;BME280;26881;48.784;9.192;2023-06-26T02:22:39;98483.28;;;19.27;55.34
41140;BME280;26881;48.784;9.192;2023-06-26T02:28:01;98478.75;;;19.19;55.80
41140;BME280;26881;48.784;9.192;2023-06-26T02:33:23;98487.00;;;19.06;56.32
41140;BME280;26881;48.784;9.192;2023-06-26T02:38:45;98483.84;;;19.03;56.53
41140;BME280;26881;48.784;9.192;2023-06-26T02:44:07;98480.44;;;18.83;57.20
41140;BME280;26881;48.784;9.192;2023-06-26T02:49:29;98486.84;;;18.80;57.05
41140;BME280;26881;48.784;9.192;2023-06-26T02:54:51;98480.56;;;18.71;57.38
41140;BME280;26881;48.784;9.192;2023-06-26T03:00:13;98480.13;;;18.76;57.27
41140;BME280;26881;48.784;9.192;2023-06-26T03:05:35;98473.59;;;18.80;57.50
41140;BME280;26881;48.784;9.192;2023-06-26T03:10:57;98477.50;;;18.86;57.21
41140;BME280;26881;48.784;9.192;2023-06-26T03:16:18;98481.41;;;18.82;57.26
41140;BME280;26881;48.784;9.192;2023-06-26T03:21:40;98479.22;;;18.67;57.52
41140;BME280;26881;48.784;9.192;2023-06-26T03:27:02;98479.19;;;18.77;57.49
41140;BME280;26881;48.784;9.192;2023-06-26T03:32:24;98483.19;;;18.91;57.63
41140;BME280;26881;48.784;9.192;2023-06-26T03:37:48;98488.38;;;18.83;57.60
41140;BME280;26881;48.784;9.192;2023-06-26T03:43:10;98492.81;;;18.92;57.60
41140;BME280;26881;48.784;9.192;2023-06-26T03:48:31;98490.72;;;18.95;57.50
41140;BME280;26881;48.784;9.192;2023-06-26T03:53:53;98486.50;;;19.03;57.69
41140;BME280;26881;48.784;9.192;2023-06-26T03:59:15;98492.63;;;19.03;57.88
41140;BME280;26881;48.784;9.192;2023-06-26T04:04:37;98493.41;;;19.13;57.53
41140;BME280;26881;48.784;9.192;2023-06-26T04:09:59;98495.91;;;19.15;58.08
41140;BME280;26881;48.784;9.192;2023-06-26T04:15:21;98489.34;;;19.19;58.04
41140;BME280;26881;48.784;9.192;2023-06-26T04:21:03;98489.84;;;19.32;57.71
41140;BME280;26881;48.784;9.192;2023-06-26T04:26:25;98495.09;;;19.42;57.72
41140;BME280;26881;48.784;9.192;2023-06-26T04:31:49;98495.84;;;19.52;57.49
41140;BME280;26881;48.784;9.192;2023-06-26T04:37:11;98495.09;;;19.60;57.36
41140;BME280;26881;48.784;9.192;2023-06-26T04:42:33;98489.06;;;19.68;57.85
41140;BME280;26881;48.784;9.192;2023-06-26T04:47:54;98491.22;;;19.82;57.59
41140;BME280;26881;48.784;9.192;2023-06-26T04:53:18;98491.00;;;19.93;57.48
41140;BME280;26881;48.784;9.192;2023-06-26T04:58:40;98491.13;;;20.10;57.45
41140;BME280;26881;48.784;9.192;2023-06-26T05:04:02;98482.63;;;20.24;57.04
41140;BME280;26881;48.784;9.192;2023-06-26T05:09:24;98484.03;;;20.36;57.30
41140;BME280;26881;48.784;9.192;2023-06-26T05:14:46;98482.31;;;20.53;57.34
41140;BME280;26881;48.784;9.192;2023-06-26T05:20:08;98479.78;;;20.70;56.24
41140;BME280;26881;48.784;9.192;2023-06-26T05:25:31;98486.72;;;20.89;56.36
41140;BME280;26881;48.784;9.192;2023-06-26T05:30:54;98490.31;;;21.14;56.20
41140;BME280;26881;48.784;9.192;2023-06-26T05:36:18;98481.91;;;21.35;55.13
41140;BME280;26881;48.784;9.192;2023-06-26T05:41:40;98488.84;;;21.62;54.68
41140;BME280;26881;48.784;9.192;2023-06-26T05:47:02;98491.88;;;21.83;54.05
41140;BME280;26881;48.784;9.192;2023-06-26T05:52:24;98487.41;;;22.08;53.47
41140;BME280;26881;48.784;9.192;2023-06-26T05:57:47;98485.25;;;22.37;52.77
41140;BME280;26881;48.784;9.192;2023-06-26T06:03:10;98485.56;;;22.66;52.27
41140;BME280;26881;48.784;9.192;2023-06-26T06:08:33;98475.78;;;22.98;51.24
41140;BME280;26881;48.784;9.192;2023-06-26T06:13:54;98471.22;;;23.23;50.96
41140;BME280;26881;48.784;9.192;2023-06-26T06:19:16;98475.13;;;23.44;49.94
41140;BME280;26881;48.784;9.192;2023-06-26T06:24:38;98473.97;;;23.69;49.32
41140;BME280;26881;48.784;9.192;2023-06-26T06:30:00;98472.56;;;23.82;48.81
41140;BME280;26881;48.784;9.192;2023-06-26T06:35:22;98478.06;;;24.26;48.34
41140;BME280;26881;48.784;9.192;2023-06-26T06:40:49;98475.97;;;24.59;47.02
41140;BME280;26881;48.784;9.192;2023-06-26T06:46:11;98479.00;;;24.86;46.44
41140;BME280;26881;48.784;9.192;2023-06-26T06:51:33;98484.91;;;25.11;46.12
41140;BME280;26881;48.784;9.192;2023-06-26T06:56:55;98486.75;;;25.40;45.55
41140;BME280;26881;48.784;9.192;2023-06-26T07:02:17;98486.91;;;25.75;44.46
41140;BME280;26881;48.784;9.192;2023-06-26T07:07:39;98479.19;;;26.02;43.82
41140;BME280;26881;48.784;9.192;2023-06-26T07:13:01;98475.56;;;26.38;43.22
41140;BME280;26881;48.784;9.192;2023-06-26T07:18:23;98469.31;;;26.87;41.50
41140;BME280;26881;48.784;9.192;2023-06-26T07:23:45;98470.53;;;27.19;41.20
41140;BME280;26881;48.784;9.192;2023-06-26T07:29:07;98473.13;;;27.47;40.83
41140;BME280;26881;48.784;9.192;2023-06-26T07:34:29;98470.53;;;27.74;39.95
41140;BME280;26881;48.784;9.192;2023-06-26T07:39:51;98478.25;;;28.04;39.50
41140;BME280;26881;48.784;9.192;2023-06-26T07:45:13;98474.16;;;28.48;38.89
41140;BME280;26881;48.784;9.192;2023-06-26T07:50:35;98472.69;;;28.72;37.59
41140;BME280;26881;48.784;9.192;2023-06-26T07:55:57;98463.72;;;28.98;37.02
41140;BME280;26881;48.784;9.192;2023-06-26T08:01:19;98466.75;;;29.28;36.35
41140;BME280;26881;48.784;9.192;2023-06-26T08:06:41;98458.41;;;29.81;35.44
41140;BME280;26881;48.784;9.192;2023-06-26T08:12:03;98446.25;;;29.97;34.93
41140;BME280;26881;48.784;9.192;2023-06-26T08:17:27;98448.50;;;30.25;34.35
41140;BME280;26881;48.784;9.192;2023-06-26T08:22:51;98442.59;;;30.60;33.53
41140;BME280;26881;48.784;9.192;2023-06-26T08:28:14;98435.88;;;30.70;33.02
41140;BME280;26881;48.784;9.192;2023-06-26T08:33:36;98439.69;;;30.87;32.75
41140;BME280;26881;48.784;9.192;2023-06-26T08:38:58;98431.69;;;31.29;32.00
41140;BME280;26881;48.784;9.192;2023-06-26T08:44:20;98428.84;;;31.42;31.18
41140;BME280;26881;48.784;9.192;2023-06-26T08:50:08;98437.19;;;31.83;30.81
41140;BME280;26881;48.784;9.192;2023-06-26T08:55:33;98430.66;;;32.02;30.67
41140;BME280;26881;48.784;9.192;2023-06-26T09:00:57;98430.66;;;32.02;30.08
41140;BME280;26881;48.784;9.192;2023-06-26T09:06:19;98424.94;;;32.34;29.69
41140;BME280;26881;48.784;9.192;2023-06-26T09:11:41;98424.59;;;32.54;29.59
41140;BME280;26881;48.784;9.192;2023-06-26T09:17:03;98428.69;;;32.92;28.75
41140;BME280;26881;48.784;9.192;2023-06-26T09:22:26;98423.84;;;32.94;29.07
41140;BME280;26881;48.784;9.192;2023-06-26T09:27:48;98422.28;;;33.10;28.29
41140;BME280;26881;48.784;9.192;2023-06-26T09:33:17;98413.63;;;33.53;27.01
41140;BME280;26881;48.784;9.192;2023-06-26T09:38:40;98412.34;;;33.27;28.46
41140;BME280;26881;48.784;9.192;2023-06-26T09:44:04;98411.81;;;33.13;28.33
41140;BME280;26881;48.784;9.192;2023-06-26T09:49:27;98406.22;;;33.49;28.03
41140;BME280;26881;48.784;9.192;2023-06-26T09:54:49;98402.28;;;33.11;28.93
41140;BME280;26881;48.784;9.192;2023-06-26T10:00:11;98401.88;;;33.19;28.36
41140;BME280;26881;48.784;9.192;2023-06-26T10:05:34;98398.25;;;33.02;28.47
41140;BME280;26881;48.784;9.192;2023-06-26T10:10:57;98413.75;;;32.78;29.01
41140;BME280;26881;48.784;9.192;2023-06-26T10:16:25;98419.75;;;32.21;29.87
41140;BME280;26881;48.784;9.192;2023-06-26T10:21:48;98413.38;;;33.26;29.32
41140;BME280;26881;48.784;9.192;2023-06-26T10:27:16;98410.34;;;33.23;29.52
41140;BME280;26881;48.784;9.192;2023-06-26T10:32:39;98420.88;;;32.95;30.09
41140;BME280;26881;48.784;9.192;2023-06-26T10:38:02;98422.13;;;32.29;31.64
41140;BME280;26881;48.784;9.192;2023-06-26T10:43:29;98439.72;;;31.66;32.67
41140;BME280;26881;48.784;9.192;2023-06-26T10:48:59;98446.06;;;30.67;33.99
41140;BME280;26881;48.784;9.192;2023-06-26T10:54:28;98454.25;;;30.61;32.64
41140;BME280;26881;48.784;9.192;2023-06-26T11:00:11;98455.81;;;30.94;32.49
41140;BME280;26881;48.784;9.192;2023-06-26T11:05:35;98440.75;;;31.35;32.63
41140;BME280;26881;48.784;9.192;2023-06-26T11:10:59;98443.84;;;31.68;31.92
41140;BME280;26881;48.784;9.192;2023-06-26T11:16:21;98447.88;;;32.08;31.38
41140;BME280;26881;48.784;9.192;2023-06-26T11:21:43;98445.59;;;32.05;31.59
41140;BME280;26881;48.784;9.192;2023-06-26T11:27:06;98452.00;;;32.46;30.85
41140;BME280;26881;48.784;9.192;2023-06-26T11:32:28;98458.22;;;32.11;30.98
41140;BME280;26881;48.784;9.192;2023-06-26T11:37:55;98461.78;;;32.70;30.75
41140;BME280;26881;48.784;9.192;2023-06-26T11:43:20;98471.47;;;32.54;31.39
41140;BME280;26881;48.784;9.192;2023-06-26T11:48:42;98472.28;;;32.67;31.76
41140;BME280;26881;48.784;9.192;2023-06-26T11:54:04;98475.28;;;32.35;31.50
41140;BME280;26881;48.784;9.192;2023-06-26T11:59:39;98462.03;;;32.57;31.47
41140;BME280;26881;48.784;9.192;2023-06-26T12:05:01;98479.72;;;33.35;31.48
41140;BME280;26881;48.784;9.192;2023-06-26T12:10:24;98489.78;;;33.52;31.98
41140;BME280;26881;48.784;9.192;2023-06-26T12:15:46;98490.03;;;33.10;32.93
41140;BME280;26881;48.784;9.192;2023-06-26T12:21:08;98481.81;;;32.81;33.20
41140;BME280;26881;48.784;9.192;2023-06-26T12:26:30;98481.19;;;33.03;33.37
41140;BME280;26881;48.784;9.192;2023-06-26T12:31:55;98490.41;;;34.28;31.05
41140;BME280;26881;48.784;9.192;2023-06-26T12:37:17;98485.66;;;33.61;32.72
41140;BME280;26881;48.784;9.192;2023-06-26T12:42:39;98473.56;;;34.43;30.94
41140;BME280;26881;48.784;9.192;2023-06-26T12:48:36;98464.28;;;35.39;30.26
41140;BME280;26881;48.784;9.192;2023-06-26T12:53:59;98456.91;;;35.88;27.90
41140;BME280;26881;48.784;9.192;2023-06-26T12:59:21;98454.00;;;37.12;26.95
41140;BME280;26881;48.784;9.192;2023-06-26T13:04:44;98456.47;;;37.14;26.45
41140;BME280;26881;48.784;9.192;2023-06-26T13:10:06;98445.22;;;37.89;25.17
41140;BME280;26881;48.784;9.192;2023-06-26T13:15:28;98455.31;;;37.05;26.36
41140;BME280;26881;48.784;9.192;2023-06-26T13:20:50;98462.63;;;36.52;26.57
41140;BME280;26881;48.784;9.192;2023-06-26T13:26:12;98453.13;;;38.42;24.53
41140;BME280;26881;48.784;9.192;2023-06-26T13:31:54;98463.78;;;38.23;24.18
41140;BME280;26881;48.784;9.192;2023-06-26T13:37:18;98455.31;;;38.29;23.64
41140;BME280;26881;48.784;9.192;2023-06-26T13:42:40;98457.97;;;38.86;23.25
41140;BME280;26881;48.784;9.192;2023-06-26T13:48:02;98467.38;;;37.14;25.19
41140;BME280;26881;48.784;9.192;2023-06-26T13:53:24;98463.75;;;37.87;23.08
41140;BME280;26881;48.784;9.192;2023-06-26T13:58:46;98457.47;;;37.76;22.98
41140;BME280;26881;48.784;9.192;2023-06-26T14:04:08;98460.75;;;38.60;21.56
41140;BME280;26881;48.784;9.192;2023-06-26T14:09:30;98452.00;;;37.76;21.93
41140;BME280;26881;48.784;9.192;2023-06-26T14:14:52;98470.75;;;37.47;22.19
41140;BME280;26881;48.784;9.192;2023-06-26T14:20:14;98472.56;;;39.36;19.67
41140;BME280;26881;48.784;9.192;2023-06-26T14:25:36;98464.19;;;37.48;21.56
41140;BME280;26881;48.784;9.192;2023-06-26T14:30:58;98475.06;;;36.75;22.79
41140;BME280;26881;48.784;9.192;2023-06-26T14:36:20;98487.94;;;36.52;22.69
41140;BME280;26881;48.784;9.192;2023-06-26T14:41:43;98482.91;;;38.69;20.50
41140;BME280;26881;48.784;9.192;2023-06-26T14:47:05;98471.66;;;38.81;19.58
41140;BME280;26881;48.784;9.192;2023-06-26T14:52:27;98502.84;;;35.58;23.76
41140;BME280;26881;48.784;9.192;2023-06-26T14:57:49;98492.38;;;37.59;21.53
41140;BME280;26881;48.784;9.192;2023-06-26T15:03:11;98499.97;;;36.56;22.94
41140;BME280;26881;48.784;9.192;2023-06-26T15:08:33;98512.22;;;36.91;22.94
41140;BME280;26881;48.784;9.192;2023-06-26T15:13:55;98496.88;;;36.10;23.62
41140;BME280;26881;48.784;9.192;2023-06-26T15:19:17;98496.41;;;36.93;22.67
41140;BME280;26881;48.784;9.192;2023-06-26T15:24:39;98492.13;;;36.00;23.90
41140;BME280;26881;48.784;9.192;2023-06-26T15:30:01;98511.88;;;34.30;25.43
41140;BME280;26881;48.784;9.192;2023-06-26T15:35:23;98508.75;;;34.21;25.91
41140;BME280;26881;48.784;9.192;2023-06-26T15:40:45;98504.91;;;33.48;27.03
41140;BME280;26881;48.784;9.192;2023-06-26T15:46:07;98502.25;;;33.36;26.79
41140;BME280;26881;48.784;9.192;2023-06-26T15:51:29;98492.75;;;32.51;27.33
41140;BME280;26881;48.784;9.192;2023-06-26T15:56:52;98506.47;;;32.49;27.39
41140;BME280;26881;48.784;9.192;2023-06-26T16:02:14;98509.38;;;31.52;28.89
41140;BME280;26881;48.784;9.192;2023-06-26T16:07:36;98511.59;;;31.00;30.28
41140;BME280;26881;48.784;9.192;2023-06-26T16:13:17;98516.16;;;29.99;31.73
41140;BME280;26881;48.784;9.192;2023-06-26T16:18:41;98532.69;;;29.64;32.48
41140;BME280;26881;48.784;9.192;2023-06-26T16:24:03;98521.56;;;29.47;32.91
41140;BME280;26881;48.784;9.192;2023-06-26T16:29:25;98531.69;;;29.58;32.59
41140;BME280;26881;48.784;9.192;2023-06-26T16:34:47;98550.41;;;29.40;31.69
41140;BME280;26881;48.784;9.192;2023-06-26T16:40:09;98527.91;;;29.01;31.92
41140;BME280;26881;48.784;9.192;2023-06-26T16:45:31;98537.84;;;28.94;31.45
41140;BME280;26881;48.784;9.192;2023-06-26T16:50:53;98542.66;;;28.72;31.21
41140;BME280;26881;48.784;9.192;2023-06-26T16:56:15;98538.72;;;28.54;31.41
41140;BME280;26881;48.784;9.192;2023-06-26T17:01:41;98551.97;;;28.56;30.58
41140;BME280;26881;48.784;9.192;2023-06-26T17:07:03;98551.69;;;28.11;29.66
41140;BME280;26881;48.784;9.192;2023-06-26T17:12:25;98575.88;;;27.56;29.42
41140;BME280;26881;48.784;9.192;2023-06-26T17:17:48;98569.31;;;27.24;28.53
41140;BME280;26881;48.784;9.192;2023-06-26T17:23:10;98582.31;;;27.27;28.10
41140;BME280;26881;48.784;9.192;2023-06-26T17:28:32;98586.75;;;27.13;28.72
41140;BME280;26881;48.784;9.192;2023-06-26T17:33:54;98587.97;;;27.32;27.86
41140;BME280;26881;48.784;9.192;2023-06-26T17:39:16;98583.22;;;27.41;27.49
41140;BME280;26881;48.784;9.192;2023-06-26T17:44:38;98596.28;;;26.87;28.08
41140;BME280;26881;48.784;9.192;2023-06-26T17:50:00;98596.75;;;26.26;28.56
41140;BME280;26881;48.784;9.192;2023-06-26T17:55:21;98620.75;;;26.35;28.63
41140;BME280;26881;48.784;9.192;2023-06-26T18:00:43;98610.03;;;26.13;28.28
41140;BME280;26881;48.784;9.192;2023-06-26T18:06:05;98636.75;;;25.77;28.57
41140;BME280;26881;48.784;9.192;2023-06-26T18:11:27;98642.59;;;25.65;28.46
41140;BME280;26881;48.784;9.192;2023-06-26T18:16:51;98641.78;;;25.50;28.60
41140;BME280;26881;48.784;9.192;2023-06-26T18:22:13;98654.69;;;25.61;28.65
41140;BME280;26881;48.784;9.192;2023-06-26T18:27:35;98664.94;;;25.58;28.81
41140;BME280;26881;48.784;9.192;2023-06-26T18:32:57;98677.59;;;25.34;29.09
41140;BME280;26881;48.784;9.192;2023-06-26T18:38:19;98678.84;;;25.23;29.53
41140;BME280;26881;48.784;9.192;2023-06-26T18:43:41;98690.34;;;24.86;30.31
41140;BME280;26881;48.784;9.192;2023-06-26T18:49:09;98691.66;;;24.90;30.78
41140;BME280;26881;48.784;9.192;2023-06-26T18:54:31;98702.53;;;24.89;30.88
41140;BME280;26881;48.784;9.192;2023-06-26T18:59:52;98704.44;;;24.80;31.50
41140;BME280;26881;48.784;9.192;2023-06-26T19:05:14;98716.22;;;24.48;31.75
41140;BME280;26881;48.784;9.192;2023-06-26T19:10:37;98712.03;;;24.37;32.49
41140;BME280;26881;48.784;9.192;2023-06-26T19:15:59;98712.72;;;24.31;32.46
41140;BME280;26881;48.784;9.192;2023-06-26T19:21:22;98712.19;;;24.04;32.90
41140;BME280;26881;48.784;9.192;2023-06-26T19:26:44;98713.97;;;23.81;33.41
41140;BME280;26881;48.784;9.192;2023-06-26T19:32:06;98715.94;;;23.70;33.29
41140;BME280;26881;48.784;9.192;2023-06-26T19:37:28;98713.81;;;23.58;33.48
41140;BME280;26881;48.784;9.192;2023-06-26T19:42:50;98728.03;;;23.50;33.93
41140;BME280;26881;48.784;9.192;2023-06-26T19:48:12;98734.22;;;23.34;34.06
41140;BME280;26881;48.784;9.192;2023-06-26T19:53:34;98753.72;;;23.26;34.16
41140;BME280;26881;48.784;9.192;2023-06-26T19:58:56;98754.25;;;23.22;34.51
41140;BME280;26881;48.784;9.192;2023-06-26T20:04:18;98756.88;;;23.05;34.47
41140;BME280;26881;48.784;9.192;2023-06-26T20:09:40;98770.50;;;22.86;35.14
41140;BME280;26881;48.784;9.192;2023-06-26T20:15:02;98778.47;;;22.69;35.26
41140;BME280;26881;48.784;9.192;2023-06-26T20:20:24;98776.97;;;22.67;35.67
41140;BME280;26881;48.784;9.192;2023-06-26T20:25:46;98775.31;;;22.66;35.71
41140;BME280;26881;48.784;9.192;2023-06-26T20:31:08;98787.78;;;22.57;36.12
41140;BME280;26881;48.784;9.192;2023-06-26T20:36:32;98812.06;;;22.46;36.79
41140;BME280;26881;48.784;9.192;2023-06-26T20:41:54;98816.31;;;22.30;37.01
41140;BME280;26881;48.784;9.192;2023-06-26T20:47:18;98829.16;;;22.35;37.22
41140;BME280;26881;48.784;9.192;2023-06-26T20:52:43;98820.66;;;22.32;37.36
41140;BME280;26881;48.784;9.192;2023-06-26T20:58:05;98816.72;;;22.18;37.77
41140;BME280;26881;48.784;9.192;2023-06-26T21:03:27;98826.81;;;22.06;38.32
41140;BME280;26881;48.784;9.192;2023-06-26T21:08:49;98828.66;;;22.05;38.63
41140;BME280;26881;48.784;9.192;2023-06-26T21:14:11;98831.81;;;22.09;38.67
41140;BME280;26881;48.784;9.192;2023-06-26T21:19:33;98838.91;;;22.00;38.94
41140;BME280;26881;48.784;9.192;2023-06-26T21:24:54;98847.38;;;21.96;39.02
41140;BME280;26881;48.784;9.192;2023-06-26T21:30:16;98865.53;;;21.74;39.80
41140;BME280;26881;48.784;9.192;2023-06-26T21:35:38;98867.09;;;21.59;39.90
41140;BME280;26881;48.784;9.192;2023-06-26T21:41:05;98869.44;;;21.62;40.37
41140;BME280;26881;48.784;9.192;2023-06-26T21:46:27;98874.31;;;21.66;40.24
41140;BME280;26881;48.784;9.192;2023-06-26T21:51:49;98879.19;;;21.53;40.64
41140;BME280;26881;48.784;9.192;2023-06-26T21:57:11;98891.78;;;21.33;41.18
41140;BME280;26881;48.784;9.192;2023-06-26T22:02:33;98894.28;;;21.35;41.18
41140;BME280;26881;48.784;9.192;2023-06-26T22:07:54;98901.25;;;21.18;41.50
41140;BME280;26881;48.784;9.192;2023-06-26T22:13:17;98895.88;;;21.27;41.69
41140;BME280;26881;48.784;9.192;2023-06-26T22:18:39;98898.75;;;21.16;41.88
41140;BME280;26881;48.784;9.192;2023-06-26T22:24:01;98907.56;;;21.35;41.82
41140;BME280;26881;48.784;9.192;2023-06-26T22:29:23;98909.03;;;21.29;41.64
41140;BME280;26881;48.784;9.192;2023-06-26T22:34:45;98920.31;;;21.13;42.29
41140;BME280;26881;48.784;9.192;2023-06-26T22:40:08;98929.56;;;21.19;42.23
41140;BME280;26881;48.784;9.192;2023-06-26T22:45:30;98916.53;;;20.98;42.90
41140;BME280;26881;48.784;9.192;2023-06-26T22:50:52;98912.22;;;20.87;42.96
41140;BME280;26881;48.784;9.192;2023-06-26T22:56:14;98911.03;;;20.72;43.41
41140;BME280;26881;48.784;9.192;2023-06-26T23:01:36;98901.09;;;20.74;43.58
41140;BME280;26881;48.784;9.192;2023-06-26T23:06:58;98913.28;;;20.67;43.59
41140;BME280;26881;48.784;9.192;2023-06-26T23:12:21;98917.66;;;20.58;43.92
41140;BME280;26881;48.784;9.192;2023-06-26T23:17:43;98911.63;;;20.66;43.89
41140;BME280;26881;48.784;9.192;2023-06-26T23:23:06;98911.88;;;20.72;43.67
41140;BME280;26881;48.784;9.192;2023-06-26T23:28:29;98913.59;;;20.63;44.00
41140;BME280;26881;48.784;9.192;2023-06-26T23:33:54;98913.44;;;20.65;43.63
41140;BME280;26881;48.784;9.192;2023-06-26T23:39:19;98919.75;;;20.64;44.16
41140;BME280;26881;48.784;9.192;2023-06-26T23:44:40;98920.75;;;20.43;44.63
41140;BME280;26881;48.784;9.192;2023-06-26T23:50:03;98917.84;;;20.37;44.89
41140;BME280;26881;48.784;9.192;2023-06-26T23:55:24;98919.66;;;20.36;44.99
